Time;durP1;ratioP1;P1;durP2;ratioP2;P2;SDS_P1;SDS_P2;PMS_P1;PMS_P2;Temp;Humidity;BMP_temperature;BMP_pressure;BME280_temperature;BME280_humidity;BME280_pressure;Samples;Min_cycle;Max_cycle;Signal;HPM_P1;HPM_P2
2022/10/31 00:01:29;;;;;;;9.23;2.05;;;12.90;99.90;;;;;;5084786;28;20175;-70
2022/10/31 00:03:55;;;;;;;7.07;2.40;;;12.90;99.90;;;;;;5081614;28;20036;-72
2022/10/31 00:06:21;;;;;;;3.35;1.85;;;12.90;99.90;;;;;;5085241;28;20039;-70
2022/10/31 00:08:52;;;;;;;6.40;2.10;;;12.90;99.90;;;;;;5083653;28;20070;-70
2022/10/31 00:11:18;;;;;;;4.60;1.70;;;12.90;99.90;;;;;;5081095;28;20053;-70
2022/10/31 00:13:43;;;;;;;6.65;2.00;;;12.90;99.90;;;;;;5084623;28;20032;-70
2022/10/31 00:16:16;;;;;;;12.95;2.63;;;12.90;99.90;;;;;;5084747;28;20566;-71
2022/10/31 00:18:42;;;;;;;8.15;2.20;;;12.90;99.90;;;;;;5084947;28;20036;-71
2022/10/31 00:21:07;;;;;;;5.78;3.08;;;12.90;99.90;;;;;;5083328;28;20063;-70
2022/10/31 00:23:33;;;;;;;5.85;2.78;;;12.90;99.90;;;;;;5084514;28;20036;-71
2022/10/31 00:26:03;;;;;;;5.43;2.45;;;12.90;99.90;;;;;;5085635;28;20130;-70
2022/10/31 00:28:30;;;;;;;6.18;2.30;;;12.90;99.90;;;;;;5084591;28;20081;-71
2022/10/31 00:31:02;;;;;;;5.80;2.30;;;12.90;99.90;;;;;;5084141;28;20032;-70
2022/10/31 00:33:28;;;;;;;6.75;2.35;;;12.90;99.90;;;;;;5083741;28;20381;-72
2022/10/31 00:35:54;;;;;;;6.82;2.72;;;12.80;99.90;;;;;;5085570;28;20036;-70
2022/10/31 00:38:19;;;;;;;19.42;2.75;;;12.80;99.90;;;;;;5083608;28;20039;-72
2022/10/31 00:40:45;;;;;;;7.40;2.20;;;12.80;99.90;;;;;;5085561;28;20036;-69
2022/10/31 00:43:10;;;;;;;5.45;2.45;;;12.80;99.90;;;;;;5087327;28;20028;-70
2022/10/31 00:45:36;;;;;;;4.68;2.10;;;12.80;99.90;;;;;;5088412;28;20040;-71
2022/10/31 00:48:02;;;;;;;10.63;3.03;;;12.80;99.90;;;;;;5089357;28;20396;-70
2022/10/31 00:50:27;;;;;;;6.05;2.40;;;12.70;99.90;;;;;;5088215;28;20074;-73
2022/10/31 00:52:53;;;;;;;6.90;2.80;;;12.70;99.90;;;;;;5088896;28;20047;-70
2022/10/31 00:55:18;;;;;;;11.38;2.95;;;12.70;99.90;;;;;;5088688;28;20084;-70
2022/10/31 00:57:47;;;;;;;4.47;2.47;;;12.70;99.90;;;;;;5088452;28;20038;-69
2022/10/31 01:00:13;;;;;;;5.55;2.53;;;12.60;99.90;;;;;;5088612;28;20482;-70
2022/10/31 01:02:39;;;;;;;8.23;2.90;;;12.60;99.90;;;;;;5086802;28;20404;-70
2022/10/31 01:05:04;;;;;;;8.82;3.10;;;12.60;99.90;;;;;;5088499;28;20043;-70
2022/10/31 01:07:30;;;;;;;16.15;3.17;;;12.50;99.90;;;;;;5087929;28;20552;-71
2022/10/31 01:09:56;;;;;;;7.15;2.38;;;12.50;99.90;;;;;;5087584;28;20396;-71
2022/10/31 01:12:21;;;;;;;5.72;2.50;;;12.50;99.90;;;;;;5088218;28;20058;-70
2022/10/31 01:14:47;;;;;;;4.10;1.88;;;12.60;99.90;;;;;;5087605;28;20043;-69
2022/10/31 01:17:13;;;;;;;6.75;2.35;;;12.60;99.90;;;;;;5088431;28;20032;-72
2022/10/31 01:19:39;;;;;;;4.88;2.38;;;12.60;99.90;;;;;;5087863;28;20040;-70
2022/10/31 01:22:05;;;;;;;8.60;3.28;;;12.60;99.90;;;;;;5087048;28;20643;-70
2022/10/31 01:24:30;;;;;;;4.03;1.95;;;12.60;99.90;;;;;;5086948;28;20119;-70
2022/10/31 01:26:56;;;;;;;6.70;2.20;;;12.60;99.90;;;;;;5088582;28;20063;-70
2022/10/31 01:29:21;;;;;;;6.65;2.53;;;12.50;99.90;;;;;;5087930;28;20518;-70
2022/10/31 01:31:47;;;;;;;9.00;2.55;;;12.50;99.90;;;;;;5087779;28;20028;-71
2022/10/31 01:34:16;;;;;;;6.43;3.05;;;12.50;99.90;;;;;;5081778;28;20173;-72
2022/10/31 01:36:41;;;;;;;7.82;2.60;;;12.50;99.90;;;;;;5086273;28;20403;-71
2022/10/31 01:39:12;;;;;;;8.23;2.53;;;12.40;99.90;;;;;;5088442;28;20039;-70
2022/10/31 01:41:44;;;;;;;7.10;2.58;;;12.40;99.90;;;;;;5087500;28;20064;-70
2022/10/31 01:44:13;;;;;;;7.53;2.25;;;12.40;99.90;;;;;;5085647;28;20040;-70
2022/10/31 01:47:07;;;;;;;4.68;2.53;;;12.30;99.90;;;;;;5086177;28;20039;-70
2022/10/31 01:49:39;;;;;;;6.10;2.75;;;12.20;99.90;;;;;;5086491;28;20507;-71
2022/10/31 01:52:29;;;;;;;6.05;2.50;;;12.20;99.90;;;;;;5086414;28;20135;-70
2022/10/31 01:55:20;;;;;;;6.97;2.40;;;12.10;99.90;;;;;;5084717;28;20048;-70
2022/10/31 01:57:50;;;;;;;5.35;2.50;;;12.10;99.90;;;;;;5083596;28;20047;-71
2022/10/31 02:00:17;;;;;;;6.63;3.05;;;12.00;99.90;;;;;;5086193;28;20476;-69
2022/10/31 02:02:45;;;;;;;6.05;2.70;;;12.00;99.90;;;;;;5082829;28;20067;-69
2022/10/31 02:05:16;;;;;;;6.45;2.80;;;12.00;99.90;;;;;;5098246;28;20040;-70
2022/10/31 02:08:08;;;;;;;6.65;2.70;;;12.00;99.90;;;;;;5080975;28;20074;-70
2022/10/31 02:10:36;;;;;;;6.47;3.03;;;12.00;99.90;;;;;;5103121;27;20499;-70
2022/10/31 02:13:05;;;;;;;9.23;3.00;;;12.00;99.90;;;;;;5105783;27;20105;-69
2022/10/31 02:15:32;;;;;;;8.00;2.90;;;11.90;99.90;;;;;;5106568;27;20027;-69
2022/10/31 02:17:59;;;;;;;7.13;3.10;;;11.90;99.90;;;;;;5108149;27;20043;-69
2022/10/31 02:20:26;;;;;;;6.05;2.78;;;12.00;99.90;;;;;;5105328;27;20631;-72
2022/10/31 02:23:10;;;;;;;8.10;3.35;;;11.90;99.90;;;;;;5106780;27;20036;-70
2022/10/31 02:26:01;;;;;;;7.55;3.17;;;11.90;99.90;;;;;;5107779;27;20047;-69
2022/10/31 02:28:45;;;;;;;6.97;3.13;;;11.90;99.90;;;;;;5105306;27;20046;-70
2022/10/31 02:31:37;;;;;;;10.93;3.20;;;11.80;99.90;;;;;;5102881;27;20031;-71
2022/10/31 02:34:18;;;;;;;7.75;3.15;;;11.80;99.90;;;;;;5105430;27;20131;-73
2022/10/31 02:36:57;;;;;;;8.05;3.05;;;11.80;99.90;;;;;;5101472;28;20063;-70
2022/10/31 02:39:36;;;;;;;7.05;3.10;;;11.80;99.90;;;;;;5104375;27;20203;-70
2022/10/31 02:42:15;;;;;;;6.32;2.95;;;11.70;99.90;;;;;;5106282;27;20564;-70
2022/10/31 02:44:57;;;;;;;9.88;3.78;;;11.70;99.90;;;;;;5083057;28;20119;-69
2022/10/31 02:47:27;;;;;;;5.38;3.17;;;11.70;99.90;;;;;;5082300;28;20032;-71
2022/10/31 02:49:57;;;;;;;8.90;3.25;;;11.70;99.90;;;;;;5084777;28;20124;-70
2022/10/31 02:52:28;;;;;;;7.85;3.17;;;11.70;99.90;;;;;;5083928;28;20405;-69
2022/10/31 02:54:54;;;;;;;6.30;3.40;;;11.70;99.90;;;;;;5085996;28;20033;-70
2022/10/31 02:57:30;;;;;;;7.55;3.85;;;11.70;99.90;;;;;;5085505;28;20035;-69
2022/10/31 03:00:02;;;;;;;8.18;3.10;;;11.70;99.90;;;;;;5101433;27;20519;-70
2022/10/31 03:02:36;;;;;;;11.13;4.13;;;11.70;99.90;;;;;;5105914;27;20598;-68
2022/10/31 03:05:29;;;;;;;8.02;3.70;;;11.70;99.90;;;;;;5105305;27;20044;-69
2022/10/31 03:07:57;;;;;;;9.90;3.95;;;11.70;99.90;;;;;;5104754;28;20040;-70
2022/10/31 03:10:40;;;;;;;11.07;4.18;;;11.80;99.90;;;;;;5087084;28;20024;-70
2022/10/31 03:13:34;;;;;;;7.85;3.67;;;11.80;99.90;;;;;;5105758;27;20047;-69
2022/10/31 03:16:14;;;;;;;13.05;3.95;;;11.80;99.90;;;;;;5104979;28;20039;-70
2022/10/31 03:18:57;;;;;;;9.52;3.83;;;11.70;99.90;;;;;;5101684;28;20104;-70
2022/10/31 03:21:32;;;;;;;9.85;3.92;;;11.70;99.90;;;;;;5104162;27;20058;-70
2022/10/31 03:24:00;;;;;;;8.35;4.20;;;11.80;99.90;;;;;;5096739;28;20136;-70
2022/10/31 03:26:26;;;;;;;9.70;4.30;;;11.80;99.90;;;;;;5094467;28;20036;-71
2022/10/31 03:29:00;;;;;;;9.95;4.15;;;11.70;99.90;;;;;;5083727;28;20044;-70
2022/10/31 03:31:32;;;;;;;9.73;4.68;;;11.80;99.90;;;;;;5085205;28;20032;-70
2022/10/31 03:34:00;;;;;;;12.27;4.32;;;11.70;99.90;;;;;;5084212;28;20438;-71
2022/10/31 03:36:28;;;;;;;11.07;4.32;;;11.70;99.90;;;;;;5082844;28;20492;-71
2022/10/31 03:38:54;;;;;;;7.22;4.05;;;11.80;99.90;;;;;;5085064;28;20187;-71
2022/10/31 03:41:27;;;;;;;9.00;4.50;;;11.70;99.90;;;;;;5085209;28;20047;-70
2022/10/31 03:43:59;;;;;;;10.35;4.30;;;11.70;99.90;;;;;;5084194;28;20729;-70
2022/10/31 03:46:25;;;;;;;11.02;5.07;;;11.70;99.90;;;;;;5083843;28;20632;-71
2022/10/31 03:48:51;;;;;;;10.32;4.88;;;11.70;99.90;;;;;;5084860;28;20118;-70
2022/10/31 03:51:28;;;;;;;14.13;4.90;;;11.70;99.90;;;;;;5085071;28;20046;-70
2022/10/31 03:54:00;;;;;;;14.07;5.30;;;11.70;99.90;;;;;;5084036;28;20040;-70
2022/10/31 03:56:34;;;;;;;16.13;5.70;;;11.70;99.90;;;;;;5084830;28;20123;-70
2022/10/31 03:59:07;;;;;;;12.63;5.38;;;11.70;99.90;;;;;;5084808;28;20079;-71
2022/10/31 04:01:37;;;;;;;12.60;4.63;;;11.70;99.90;;;;;;5084311;28;20117;-70
2022/10/31 04:04:04;;;;;;;13.70;5.33;;;11.70;99.90;;;;;;5083238;28;20043;-70
2022/10/31 04:06:34;;;;;;;9.30;4.68;;;11.70;99.90;;;;;;5084224;28;20289;-70
2022/10/31 04:09:04;;;;;;;12.25;5.90;;;11.70;99.90;;;;;;5085997;28;20039;-70
2022/10/31 04:11:34;;;;;;;14.20;5.20;;;11.70;99.90;;;;;;5082568;28;20043;-70
2022/10/31 04:14:01;;;;;;;13.25;5.68;;;11.70;99.90;;;;;;5082910;28;20032;-70
2022/10/31 04:16:27;;;;;;;16.30;5.85;;;11.70;99.90;;;;;;5086563;28;20055;-70
2022/10/31 04:18:53;;;;;;;13.73;5.63;;;11.70;99.90;;;;;;5088923;28;20381;-70
2022/10/31 04:21:19;;;;;;;14.77;6.03;;;11.70;99.90;;;;;;5088717;28;20082;-70
2022/10/31 04:23:44;;;;;;;14.30;6.22;;;11.70;99.90;;;;;;5086606;28;20577;-70
2022/10/31 04:26:12;;;;;;;17.90;6.13;;;11.70;99.90;;;;;;5087736;28;20399;-70
2022/10/31 04:28:37;;;;;;;11.82;5.55;;;11.70;99.90;;;;;;5088921;28;20032;-69
2022/10/31 04:31:03;;;;;;;14.20;5.63;;;11.70;99.90;;;;;;5087545;28;20496;-70
2022/10/31 04:33:28;;;;;;;20.58;5.57;;;11.70;99.90;;;;;;5087780;28;20043;-70
2022/10/31 04:35:54;;;;;;;12.45;6.20;;;11.70;99.90;;;;;;5109108;28;20047;-70
2022/10/31 04:38:20;;;;;;;12.38;5.55;;;11.70;99.90;;;;;;5108855;27;20034;-70
2022/10/31 04:40:45;;;;;;;17.17;5.70;;;11.70;99.90;;;;;;5107355;28;20391;-70
2022/10/31 04:43:11;;;;;;;11.35;5.30;;;11.60;99.90;;;;;;5106970;28;20032;-74
2022/10/31 04:45:37;;;;;;;12.05;6.50;;;11.60;99.90;;;;;;5106794;28;20042;-70
2022/10/31 04:48:03;;;;;;;13.00;6.35;;;11.60;99.90;;;;;;5109349;28;20398;-71
2022/10/31 04:50:29;;;;;;;14.55;6.50;;;11.60;99.90;;;;;;5108929;28;20115;-71
2022/10/31 04:52:54;;;;;;;12.48;6.13;;;11.60;99.90;;;;;;5108221;28;20491;-71
2022/10/31 04:55:20;;;;;;;14.77;6.05;;;11.60;99.90;;;;;;5107911;27;20356;-72
2022/10/31 04:57:50;;;;;;;15.77;5.45;;;11.60;99.90;;;;;;5108535;28;20065;-71
2022/10/31 05:00:19;;;;;;;11.45;5.72;;;11.50;99.90;;;;;;5108272;27;20665;-71
2022/10/31 05:02:45;;;;;;;15.35;6.03;;;11.50;99.90;;;;;;5106684;28;20130;-70
2022/10/31 05:05:11;;;;;;;13.30;5.55;;;11.40;99.90;;;;;;5106217;28;20112;-70
2022/10/31 05:07:41;;;;;;;12.65;5.72;;;11.40;99.90;;;;;;5106653;28;20043;-71
2022/10/31 05:10:11;;;;;;;12.80;5.68;;;11.40;99.90;;;;;;5090263;28;20043;-70
2022/10/31 05:12:37;;;;;;;10.80;5.20;;;11.30;99.90;;;;;;5088286;27;20035;-70
2022/10/31 05:15:04;;;;;;;14.80;4.90;;;11.30;99.90;;;;;;5087682;27;20032;-71
2022/10/31 05:17:31;;;;;;;11.35;5.25;;;11.30;99.90;;;;;;5081668;27;20044;-71
2022/10/31 05:19:57;;;;;;;13.80;6.25;;;11.20;99.90;;;;;;5112135;27;20047;-70
2022/10/31 05:22:22;;;;;;;12.52;5.43;;;11.20;99.90;;;;;;5087441;27;20044;-70
2022/10/31 05:24:48;;;;;;;12.88;5.20;;;11.20;99.90;;;;;;5085767;28;20044;-70
2022/10/31 05:27:13;;;;;;;23.10;5.88;;;11.20;99.90;;;;;;5085591;28;20032;-71
2022/10/31 05:29:39;;;;;;;14.35;6.32;;;11.20;99.90;;;;;;5087461;28;20558;-70
2022/10/31 05:32:04;;;;;;;15.73;5.70;;;11.20;99.90;;;;;;5101676;28;20173;-71
2022/10/31 05:34:30;;;;;;;12.98;5.47;;;11.30;99.90;;;;;;5106654;27;20062;-71
2022/10/31 05:36:55;;;;;;;14.10;5.95;;;11.30;99.90;;;;;;5107263;27;20023;-69
2022/10/31 05:39:21;;;;;;;11.90;5.22;;;11.20;99.90;;;;;;5105202;27;20404;-71
2022/10/31 05:41:46;;;;;;;11.95;5.15;;;11.20;99.90;;;;;;5107030;27;20553;-70
2022/10/31 05:44:12;;;;;;;16.73;5.65;;;11.20;99.90;;;;;;5106601;27;20503;-71
2022/10/31 05:46:37;;;;;;;10.77;5.95;;;11.20;99.90;;;;;;5104209;28;20400;-70
2022/10/31 05:49:03;;;;;;;13.20;5.88;;;11.10;99.90;;;;;;5107695;28;20488;-71
2022/10/31 05:51:29;;;;;;;12.52;5.63;;;11.10;99.90;;;;;;5107060;27;20038;-71
2022/10/31 05:53:54;;;;;;;13.60;5.80;;;11.10;99.90;;;;;;5100232;27;20116;-72
2022/10/31 05:56:20;;;;;;;15.50;6.63;;;11.10;99.90;;;;;;5089112;27;20095;-72
2022/10/31 05:58:45;;;;;;;15.43;7.40;;;11.10;99.90;;;;;;5083266;28;20191;-70
2022/10/31 06:01:11;;;;;;;12.00;5.50;;;11.10;99.90;;;;;;5088149;28;20043;-70
2022/10/31 06:03:36;;;;;;;15.30;5.82;;;11.10;99.90;;;;;;5084269;28;20032;-69
2022/10/31 06:06:02;;;;;;;12.07;5.43;;;11.10;99.90;;;;;;5084847;28;20040;-70
2022/10/31 06:08:27;;;;;;;13.15;5.68;;;11.10;99.90;;;;;;5095278;28;20096;-71
2022/10/31 06:10:53;;;;;;;12.55;5.45;;;11.10;99.90;;;;;;5097478;27;20048;-71
2022/10/31 06:13:19;;;;;;;15.32;5.90;;;11.00;99.90;;;;;;5094075;27;20052;-71
2022/10/31 06:15:44;;;;;;;21.65;5.47;;;11.00;99.90;;;;;;5094599;28;20036;-70
2022/10/31 06:18:10;;;;;;;12.68;5.75;;;11.00;99.90;;;;;;5082929;28;20066;-70
2022/10/31 06:20:36;;;;;;;14.38;7.32;;;11.00;99.90;;;;;;5093269;27;20112;-70
2022/10/31 06:23:02;;;;;;;12.20;6.43;;;11.00;99.90;;;;;;5084915;28;20042;-72
2022/10/31 06:25:28;;;;;;;14.57;7.45;;;11.10;99.90;;;;;;5082442;28;20097;-70
2022/10/31 06:27:54;;;;;;;12.93;6.43;;;11.10;99.90;;;;;;5082680;28;20396;-71
2022/10/31 06:30:19;;;;;;;21.02;6.68;;;11.10;99.90;;;;;;5084048;28;20032;-71
2022/10/31 06:32:45;;;;;;;14.40;6.53;;;11.10;99.90;;;;;;5086034;28;20065;-72
2022/10/31 06:35:11;;;;;;;16.40;6.25;;;11.20;99.90;;;;;;5084585;28;20036;-69
2022/10/31 06:37:36;;;;;;;20.75;6.60;;;11.20;99.90;;;;;;5103579;27;20135;-70
2022/10/31 06:40:02;;;;;;;15.07;6.60;;;11.20;99.90;;;;;;5104801;27;20036;-70
2022/10/31 06:42:28;;;;;;;12.68;5.97;;;11.20;99.90;;;;;;5102738;27;20499;-71
2022/10/31 06:44:54;;;;;;;10.57;5.65;;;11.20;99.90;;;;;;5101333;27;20852;-70
2022/10/31 06:47:19;;;;;;;17.40;6.25;;;11.10;99.90;;;;;;5102271;27;20888;-70
2022/10/31 06:49:45;;;;;;;17.55;6.45;;;11.20;99.90;;;;;;5103944;27;20043;-70
2022/10/31 06:52:10;;;;;;;18.00;6.95;;;11.20;99.90;;;;;;5103767;27;20043;-70
2022/10/31 06:54:36;;;;;;;17.00;6.82;;;11.10;99.90;;;;;;5101409;27;20052;-72
2022/10/31 06:57:01;;;;;;;22.48;6.90;;;11.10;99.90;;;;;;5105358;27;20387;-71
2022/10/31 06:59:27;;;;;;;18.85;6.60;;;11.10;99.90;;;;;;5101660;27;20023;-69
2022/10/31 07:01:52;;;;;;;17.38;6.60;;;11.10;99.90;;;;;;5112036;27;20091;-70
2022/10/31 07:04:18;;;;;;;17.15;5.72;;;11.20;99.90;;;;;;5109622;27;20153;-70
2022/10/31 07:06:44;;;;;;;14.65;6.15;;;11.20;99.90;;;;;;5107986;27;20039;-71
2022/10/31 07:09:09;;;;;;;16.42;6.20;;;11.10;99.90;;;;;;5106476;27;20039;-70
2022/10/31 07:11:35;;;;;;;16.08;5.68;;;11.10;99.90;;;;;;5105557;27;20038;-70
2022/10/31 07:14:00;;;;;;;13.32;5.30;;;11.20;99.90;;;;;;5103824;28;20511;-71
2022/10/31 07:16:26;;;;;;;17.02;6.45;;;11.20;99.90;;;;;;5105870;27;20038;-70
2022/10/31 07:18:52;;;;;;;21.60;6.97;;;11.20;99.90;;;;;;5109508;27;20051;-71
2022/10/31 07:21:17;;;;;;;13.30;5.93;;;11.20;99.90;;;;;;5103545;27;20040;-70
2022/10/31 07:23:43;;;;;;;14.18;6.80;;;11.20;99.90;;;;;;5104762;27;20502;-71
2022/10/31 07:26:10;;;;;;;17.02;6.60;;;11.20;99.90;;;;;;5107840;27;20403;-71
2022/10/31 07:28:37;;;;;;;18.08;7.03;;;11.20;99.90;;;;;;5083503;28;20849;-71
2022/10/31 07:31:03;;;;;;;14.55;6.53;;;11.30;99.90;;;;;;5083663;28;20040;-70
2022/10/31 07:33:28;;;;;;;12.43;6.28;;;11.30;99.90;;;;;;5083031;28;20532;-71
2022/10/31 07:35:54;;;;;;;13.95;6.70;;;11.30;99.90;;;;;;5083424;28;20509;-71
2022/10/31 07:38:20;;;;;;;16.15;6.38;;;11.30;99.90;;;;;;5083010;28;20055;-71
2022/10/31 07:40:50;;;;;;;13.98;5.53;;;11.30;99.90;;;;;;5085144;28;20090;-69
2022/10/31 07:43:16;;;;;;;;;;;11.30;99.90;;;;;;5084983;28;20036;-71
2022/10/31 07:45:41;;;;;;;11.80;5.82;;;11.40;99.90;;;;;;5084510;28;19916;-69
2022/10/31 07:48:07;;;;;;;16.67;5.82;;;11.40;99.90;;;;;;5085343;28;20032;-70
2022/10/31 07:50:35;;;;;;;17.17;6.28;;;11.50;99.90;;;;;;5084620;28;20043;-71
2022/10/31 07:53:09;;;;;;;12.88;6.00;;;11.50;99.90;;;;;;5084816;28;20043;-71
2022/10/31 07:55:35;;;;;;;17.55;6.70;;;11.60;99.90;;;;;;5084357;28;20562;-70
2022/10/31 07:58:04;;;;;;;12.23;6.30;;;11.70;99.90;;;;;;5085172;28;20039;-72
2022/10/31 08:00:31;;;;;;;11.52;5.47;;;11.80;99.90;;;;;;5085104;28;20438;-70
2022/10/31 08:03:07;;;;;;;14.70;6.20;;;11.80;99.90;;;;;;5083456;28;20036;-70
2022/10/31 08:05:34;;;;;;;13.23;5.75;;;11.80;99.90;;;;;;5082761;28;20040;-71
2022/10/31 08:08:00;;;;;;;14.55;6.43;;;12.00;99.90;;;;;;5083279;28;20142;-71
2022/10/31 08:10:26;;;;;;;14.38;5.57;;;12.00;99.90;;;;;;5085084;28;20561;-71
2022/10/31 08:13:04;;;;;;;12.77;6.07;;;12.10;99.90;;;;;;5084694;28;20036;-70
2022/10/31 08:15:30;;;;;;;12.32;6.03;;;12.20;99.90;;;;;;5080217;28;20036;-70
2022/10/31 08:17:56;;;;;;;13.40;6.13;;;12.30;99.90;;;;;;5084336;28;20024;-69
2022/10/31 08:20:22;;;;;;;12.07;5.78;;;12.30;99.90;;;;;;5082899;28;20403;-70
2022/10/31 08:22:59;;;;;;;15.65;6.20;;;12.40;99.90;;;;;;5084647;28;20028;-70
2022/10/31 08:25:26;;;;;;;13.77;6.55;;;12.40;99.90;;;;;;5080668;28;20146;-71
2022/10/31 08:27:53;;;;;;;13.63;6.72;;;12.50;99.90;;;;;;5083628;28;20039;-70
2022/10/31 08:30:20;;;;;;;11.68;4.93;;;12.50;99.90;;;;;;5080321;28;20396;-71
2022/10/31 08:32:47;;;;;;;16.10;6.15;;;12.60;99.90;;;;;;5083088;28;20051;-69
2022/10/31 08:35:12;;;;;;;15.45;6.32;;;12.70;99.90;;;;;;5084160;28;20055;-71
2022/10/31 08:37:38;;;;;;;10.68;5.43;;;12.70;99.90;;;;;;5084819;28;20518;-71
2022/10/31 08:40:04;;;;;;;13.20;5.90;;;12.80;99.90;;;;;;5084744;28;20036;-70
2022/10/31 08:42:30;;;;;;;19.95;5.75;;;12.80;99.90;;;;;;5083050;28;20032;-71
2022/10/31 08:44:55;;;;;;;10.93;5.63;;;12.80;99.90;;;;;;5083977;28;20097;-70
2022/10/31 08:47:21;;;;;;;15.20;6.55;;;12.90;99.90;;;;;;5084424;28;20063;-70
2022/10/31 08:49:46;;;;;;;11.88;6.07;;;12.90;99.90;;;;;;5082688;28;20060;-70
2022/10/31 08:52:12;;;;;;;13.80;5.95;;;12.90;99.90;;;;;;5084414;28;20036;-71
2022/10/31 08:54:38;;;;;;;11.32;5.30;;;12.90;99.90;;;;;;5083226;28;20077;-69
2022/10/31 08:57:03;;;;;;;15.90;6.35;;;12.90;99.90;;;;;;5084776;28;20392;-70
2022/10/31 08:59:29;;;;;;;14.52;6.82;;;13.00;99.90;;;;;;5084169;28;20043;-70
2022/10/31 09:01:54;;;;;;;23.33;6.90;;;13.00;99.90;;;;;;5083493;28;20086;-71
2022/10/31 09:04:20;;;;;;;12.85;5.93;;;13.00;99.90;;;;;;5087145;28;20077;-70
2022/10/31 09:06:45;;;;;;;16.25;6.68;;;13.00;99.90;;;;;;5088126;28;20111;-70
2022/10/31 09:09:11;;;;;;;14.18;6.32;;;13.00;99.90;;;;;;5088211;28;20438;-70
2022/10/31 09:11:36;;;;;;;14.15;6.00;;;13.10;99.90;;;;;;5087222;28;20238;-71
2022/10/31 09:14:02;;;;;;;15.95;7.22;;;13.10;99.90;;;;;;5087072;28;20578;-71
2022/10/31 09:16:27;;;;;;;13.45;6.78;;;13.20;99.90;;;;;;5088104;28;20036;-70
2022/10/31 09:18:53;;;;;;;17.27;8.25;;;13.20;99.90;;;;;;5088131;28;20090;-72
2022/10/31 09:21:18;;;;;;;14.68;6.95;;;13.30;99.90;;;;;;5087630;28;20032;-70
2022/10/31 09:23:44;;;;;;;20.48;8.02;;;13.30;99.90;;;;;;5085045;28;20123;-70
2022/10/31 09:26:10;;;;;;;18.85;7.22;;;13.40;99.90;;;;;;5087814;28;20059;-70
2022/10/31 09:28:35;;;;;;;19.50;6.75;;;13.30;99.90;;;;;;5087305;28;20040;-70
2022/10/31 09:31:01;;;;;;;15.05;7.57;;;13.40;99.90;;;;;;5086299;28;20059;-70
2022/10/31 09:33:26;;;;;;;14.82;6.55;;;13.40;99.90;;;;;;5086672;28;20067;-71
2022/10/31 09:35:52;;;;;;;14.60;6.00;;;13.40;99.90;;;;;;5085872;28;20050;-70
2022/10/31 09:38:20;;;;;;;17.70;7.55;;;13.40;99.90;;;;;;5087569;28;20068;-70
2022/10/31 09:40:50;;;;;;;14.02;6.50;;;13.40;99.90;;;;;;5081685;28;20028;-70
2022/10/31 09:43:21;;;;;;;17.90;7.38;;;13.50;99.90;;;;;;5082841;28;20040;-70
2022/10/31 09:46:01;;;;;;;18.45;7.03;;;13.60;99.90;;;;;;5083170;28;20050;-71
2022/10/31 09:49:41;;;;;;;13.02;4.95;;;13.70;99.90;;;;;;5092071;28;20068;-71
2022/10/31 09:52:18;;;;;;;22.42;7.22;;;13.70;99.90;;;;;;4949725;28;20079;-71
2022/10/31 09:54:53;;;;;;;19.08;7.13;;;13.90;99.90;;;;;;5029573;28;20044;-70
2022/10/31 09:57:25;;;;;;;17.90;7.03;;;13.90;99.90;;;;;;5055012;28;20035;-70
2022/10/31 09:59:51;;;;;;;13.50;6.82;;;13.90;99.90;;;;;;5083499;28;20119;-70
2022/10/31 10:02:18;;;;;;;17.42;7.57;;;14.00;99.90;;;;;;5086482;28;20754;-71
2022/10/31 10:04:58;;;;;;;23.98;7.22;;;14.00;99.90;;;;;;5082323;28;20047;-70
2022/10/31 10:07:32;;;;;;;17.63;7.72;;;14.00;99.90;;;;;;5084319;28;20032;-69
2022/10/31 10:10:11;;;;;;;14.23;7.07;;;14.10;99.90;;;;;;5085117;28;20479;-70
2022/10/31 10:12:56;;;;;;;12.23;6.38;;;14.10;99.90;;;;;;5084462;28;20437;-69
2022/10/31 10:15:38;;;;;;;14.18;6.10;;;14.10;99.90;;;;;;5082332;28;20737;-69
2022/10/31 10:18:04;;;;;;;14.77;6.93;;;14.20;99.90;;;;;;5085113;28;20036;-70
2022/10/31 10:20:38;;;;;;;14.23;6.28;;;14.20;99.90;;;;;;5084889;28;20491;-71
2022/10/31 10:23:16;;;;;;;25.27;6.80;;;14.30;99.90;;;;;;5086309;28;20121;-71
2022/10/31 10:25:46;;;;;;;11.13;5.53;;;14.40;99.90;;;;;;5083914;28;20047;-70
2022/10/31 10:28:37;;;;;;;10.70;5.40;;;14.40;99.90;;;;;;5086625;28;20047;-71
2022/10/31 10:31:19;;;;;;;12.18;5.90;;;14.40;99.90;;;;;;5083126;28;20078;-70
2022/10/31 10:33:54;;;;;;;11.57;6.10;;;14.50;99.90;;;;;;5081776;28;20499;-70
2022/10/31 10:36:41;;;;;;;13.85;6.03;;;14.50;99.90;;;;;;5082991;28;20046;-70
2022/10/31 10:39:22;;;;;;;15.25;6.65;;;14.50;99.90;;;;;;5086501;28;20153;-70
2022/10/31 10:47:40;;;;;;;11.88;6.05;;;14.90;99.90;;;;;;5083488;28;20078;-70
2022/10/31 10:50:15;;;;;;;21.00;6.60;;;15.10;99.90;;;;;;5085997;28;20031;-71
2022/10/31 10:53:21;;;;;;;21.50;6.50;;;15.20;99.90;;;;;;5088865;28;20036;-70
2022/10/31 10:56:25;;;;;;;15.88;5.97;;;15.30;99.90;;;;;;5080559;28;20036;-69
2022/10/31 10:58:54;;;;;;;11.10;5.88;;;15.20;99.90;;;;;;5079303;28;20127;-71
2022/10/31 11:01:19;;;;;;;21.48;6.32;;;15.20;99.90;;;;;;5085832;28;20036;-70
2022/10/31 11:03:45;;;;;;;12.98;5.88;;;15.20;99.90;;;;;;5085467;28;20043;-71
2022/10/31 11:06:27;;;;;;;17.42;7.05;;;15.10;99.90;;;;;;5085223;28;20130;-70
2022/10/31 11:08:53;;;;;;;12.50;5.43;;;15.10;99.90;;;;;;5082888;28;20032;-70
2022/10/31 11:11:30;;;;;;;15.57;6.43;;;15.20;99.90;;;;;;5085527;28;20118;-73
2022/10/31 11:14:05;;;;;;;10.23;5.65;;;15.20;99.90;;;;;;5084592;28;20032;-70
2022/10/31 11:16:35;;;;;;;16.05;6.65;;;15.10;99.90;;;;;;5083858;28;20036;-70
2022/10/31 11:19:14;;;;;;;11.48;5.68;;;15.10;99.90;;;;;;5085369;28;20496;-70
2022/10/31 11:21:40;;;;;;;12.35;6.00;;;15.10;99.90;;;;;;5084956;28;20101;-71
2022/10/31 11:24:09;;;;;;;13.32;6.72;;;15.20;99.90;;;;;;5079333;28;20176;-69
2022/10/31 11:26:37;;;;;;;12.88;6.30;;;15.30;99.90;;;;;;5082865;28;20051;-70
2022/10/31 11:29:05;;;;;;;16.60;5.82;;;15.30;99.90;;;;;;5085958;28;20032;-70
2022/10/31 11:31:32;;;;;;;18.85;7.40;;;15.30;99.90;;;;;;5085445;28;20039;-70
2022/10/31 11:34:04;;;;;;;22.60;7.65;;;15.30;99.90;;;;;;5084766;28;20044;-69
2022/10/31 11:36:34;;;;;;;15.65;6.13;;;15.30;99.90;;;;;;5085125;28;20146;-69
2022/10/31 11:39:02;;;;;;;12.83;6.23;;;15.40;99.90;;;;;;5085419;28;20028;-71
2022/10/31 11:41:31;;;;;;;17.08;7.05;;;15.40;99.90;;;;;;5083807;28;20133;-70
2022/10/31 11:44:27;;;;;;;16.35;6.82;;;15.50;99.90;;;;;;5082957;28;20036;-69
2022/10/31 11:46:58;;;;;;;17.15;7.75;;;15.50;99.90;;;;;;5082084;28;20047;-69
2022/10/31 11:49:37;;;;;;;15.88;8.57;;;15.50;99.90;;;;;;5083921;28;20028;-69
2022/10/31 11:52:12;;;;;;;18.23;8.30;;;15.50;99.90;;;;;;5084660;28;20071;-70
2022/10/31 11:55:09;;;;;;;22.35;8.70;;;15.50;99.90;;;;;;5079941;28;20047;-70
2022/10/31 11:57:50;;;;;;;20.73;8.27;;;15.40;99.90;;;;;;5080688;28;20812;-71
2022/10/31 12:00:30;;;;;;;19.33;9.55;;;15.50;99.90;;;;;;5079568;28;20043;-69
2022/10/31 12:03:23;;;;;;;23.65;9.30;;;15.50;99.90;;;;;;5087992;28;20039;-70
2022/10/31 12:06:03;;;;;;;24.50;8.95;;;15.50;99.90;;;;;;5082552;28;20434;-69
2022/10/31 12:08:31;;;;;;;20.05;8.45;;;15.50;99.90;;;;;;5082942;28;20039;-69
2022/10/31 12:11:15;;;;;;;26.70;10.45;;;15.60;99.90;;;;;;5087834;28;20177;-70
2022/10/31 12:14:05;;;;;;;23.10;9.60;;;15.60;99.90;;;;;;5100615;27;20028;-70
2022/10/31 12:16:52;;;;;;;21.92;8.98;;;15.60;99.90;;;;;;5102633;27;20801;-69
2022/10/31 12:19:33;;;;;;;26.58;10.02;;;15.60;99.90;;;;;;5114402;27;20151;-69
2022/10/31 12:22:08;;;;;;;24.55;8.48;;;15.60;99.90;;;;;;5103312;27;20094;-72
2022/10/31 12:25:10;;;;;;;26.70;9.13;;;15.70;99.90;;;;;;5102229;27;20043;-69
2022/10/31 12:28:10;;;;;;;20.98;8.93;;;15.60;99.90;;;;;;5098745;27;20035;-69
2022/10/31 12:30:41;;;;;;;29.27;10.13;;;15.60;99.90;;;;;;5095207;28;20027;-72
2022/10/31 12:33:42;;;;;;;24.63;9.65;;;15.60;99.90;;;;;;5100877;28;20023;-69
2022/10/31 12:36:14;;;;;;;26.23;10.13;;;15.60;99.90;;;;;;5080003;28;20047;-71
2022/10/31 12:39:10;;;;;;;26.65;9.70;;;15.60;99.90;;;;;;5084428;28;20273;-69
2022/10/31 12:41:50;;;;;;;28.27;9.40;;;15.70;99.90;;;;;;5082799;28;20040;-69
2022/10/31 12:44:22;;;;;;;20.20;9.98;;;15.70;99.90;;;;;;5085041;28;20038;-71
2022/10/31 12:46:59;;;;;;;23.67;10.00;;;15.80;99.90;;;;;;5086817;28;20044;-69
2022/10/31 12:49:49;;;;;;;27.08;9.55;;;15.90;99.90;;;;;;5086937;28;20040;-71
2022/10/31 12:52:31;;;;;;;29.40;9.60;;;16.00;99.90;;;;;;5088330;28;20169;-72
2022/10/31 12:55:34;;;;;;;24.10;9.25;;;16.00;99.90;;;;;;5085991;28;20028;-70
2022/10/31 12:58:21;;;;;;;20.70;8.25;;;16.00;99.90;;;;;;5087310;28;20032;-70
2022/10/31 13:00:51;;;;;;;24.05;9.10;;;16.00;99.90;;;;;;5084268;28;20043;-71
2022/10/31 13:03:35;;;;;;;25.40;9.55;;;16.10;99.90;;;;;;5087511;28;20046;-68
2022/10/31 13:06:12;;;;;;;27.15;10.75;;;16.10;99.90;;;;;;5088207;28;20488;-70